sensor_id;sensor_type;location;lat;lon;timestamp;pressure;altitude;pressure_sealevel;temperature;humidity
19150;BME280;9707;49.158;8.632;2023-03-19T00:02:19;100099.25;;;21.01;34.14
19150;BME280;9707;49.158;8.632;2023-03-19T00:04:45;100110.09;;;21.01;33.93
19150;BME280;9707;49.158;8.632;2023-03-19T00:07:11;100109.38;;;20.99;34.12
19150;BME280;9707;49.158;8.632;2023-03-19T00:09:37;100114.91;;;20.98;34.08
19150;BME280;9707;49.158;8.632;2023-03-19T00:12:02;100119.47;;;20.97;33.92
19150;BME280;9707;49.158;8.632;2023-03-19T00:14:28;100105.09;;;20.97;34.57
19150;BME280;9707;49.158;8.632;2023-03-19T00:16:53;100100.38;;;20.99;34.62
19150;BME280;9707;49.158;8.632;2023-03-19T00:19:18;100099.38;;;21.00;34.15
19150;BME280;9707;49.158;8.632;2023-03-19T00:21:43;100107.50;;;21.00;34.15
19150;BME280;9707;49.158;8.632;2023-03-19T00:24:09;100101.25;;;20.99;34.02
19150;BME280;9707;49.158;8.632;2023-03-19T00:26:35;100095.97;;;20.98;34.08
19150;BME280;9707;49.158;8.632;2023-03-19T00:29:00;100086.97;;;20.97;34.42
19150;BME280;9707;49.158;8.632;2023-03-19T00:31:27;100091.56;;;20.97;34.17
19150;BME280;9707;49.158;8.632;2023-03-19T00:33:55;100104.09;;;20.98;34.21
19150;BME280;9707;49.158;8.632;2023-03-19T00:36:21;100112.22;;;20.98;34.33
19150;BME280;9707;49.158;8.632;2023-03-19T00:38:47;100114.91;;;20.98;34.26
19150;BME280;9707;49.158;8.632;2023-03-19T00:41:13;100113.22;;;20.97;34.14
19150;BME280;9707;49.158;8.632;2023-03-19T00:43:39;100118.63;;;20.97;34.41
19150;BME280;9707;49.158;8.632;2023-03-19T00:46:04;100109.63;;;20.96;34.40
19150;BME280;9707;49.158;8.632;2023-03-19T00:48:30;100107.78;;;20.97;34.59
19150;BME280;9707;49.158;8.632;2023-03-19T00:51:01;100102.38;;;20.97;34.50
19150;BME280;9707;49.158;8.632;2023-03-19T00:53:26;100113.22;;;20.97;34.60
19150;BME280;9707;49.158;8.632;2023-03-19T00:55:51;100116.03;;;20.95;34.58
19150;BME280;9707;49.158;8.632;2023-03-19T00:58:17;100111.47;;;20.96;35.12
19150;BME280;9707;49.158;8.632;2023-03-19T01:00:42;100108.75;;;20.96;35.13
19150;BME280;9707;49.158;8.632;2023-03-19T01:03:08;100106.81;;;20.98;34.67
19150;BME280;9707;49.158;8.632;2023-03-19T01:05:34;100109.50;;;20.98;34.79
19150;BME280;9707;49.158;8.632;2023-03-19T01:08:00;100112.22;;;20.98;34.74
19150;BME280;9707;49.158;8.632;2023-03-19T01:10:26;100110.50;;;20.97;34.63
19150;BME280;9707;49.158;8.632;2023-03-19T01:12:52;100120.59;;;20.95;34.83
19150;BME280;9707;49.158;8.632;2023-03-19T01:15:17;100123.28;;;20.95;34.80
19150;BME280;9707;49.158;8.632;2023-03-19T01:17:43;100121.59;;;20.94;34.84
19150;BME280;9707;49.158;8.632;2023-03-19T01:20:10;100124.28;;;20.94;34.67
19150;BME280;9707;49.158;8.632;2023-03-19T01:22:39;100129.72;;;20.94;34.63
19150;BME280;9707;49.158;8.632;2023-03-19T01:25:05;100126.28;;;20.92;34.66
19150;BME280;9707;49.158;8.632;2023-03-19T01:27:31;100131.69;;;20.92;34.64
19150;BME280;9707;49.158;8.632;2023-03-19T01:29:57;100126.28;;;20.92;35.04
19150;BME280;9707;49.158;8.632;2023-03-19T01:32:22;100129.97;;;20.91;34.81
19150;BME280;9707;49.158;8.632;2023-03-19T01:34:47;100131.69;;;20.92;34.68
19150;BME280;9707;49.158;8.632;2023-03-19T01:37:12;100134.53;;;20.90;34.74
19150;BME280;9707;49.158;8.632;2023-03-19T01:39:38;100133.66;;;20.90;34.68
19150;BME280;9707;49.158;8.632;2023-03-19T01:42:03;100133.66;;;20.90;34.53
19150;BME280;9707;49.158;8.632;2023-03-19T01:44:30;100140.94;;;20.89;34.66
19150;BME280;9707;49.158;8.632;2023-03-19T01:46:56;100142.75;;;20.89;34.78
19150;BME280;9707;49.158;8.632;2023-03-19T01:49:23;100142.75;;;20.89;34.90
19150;BME280;9707;49.158;8.632;2023-03-19T01:51:50;100142.75;;;20.89;34.84
19150;BME280;9707;49.158;8.632;2023-03-19T01:54:18;100148.28;;;20.87;35.26
19150;BME280;9707;49.158;8.632;2023-03-19T01:56:47;100147.28;;;20.88;34.78
19150;BME280;9707;49.158;8.632;2023-03-19T01:59:18;100157.28;;;20.88;35.01
19150;BME280;9707;49.158;8.632;2023-03-19T02:02:10;100156.41;;;20.87;34.69
19150;BME280;9707;49.158;8.632;2023-03-19T02:04:39;100147.44;;;20.87;34.75
19150;BME280;9707;49.158;8.632;2023-03-19T02:07:07;100156.41;;;20.87;34.88
19150;BME280;9707;49.158;8.632;2023-03-19T02:09:33;100163.69;;;20.87;35.16
19150;BME280;9707;49.158;8.632;2023-03-19T02:11:59;100156.41;;;20.87;35.22
19150;BME280;9707;49.158;8.632;2023-03-19T02:14:25;100167.22;;;20.87;34.72
19150;BME280;9707;49.158;8.632;2023-03-19T02:16:51;100163.69;;;20.87;34.79
19150;BME280;9707;49.158;8.632;2023-03-19T02:19:25;100166.41;;;20.87;34.80
19150;BME280;9707;49.158;8.632;2023-03-19T02:21:55;100166.41;;;20.87;34.83
19150;BME280;9707;49.158;8.632;2023-03-19T02:24:25;100175.47;;;20.86;34.72
19150;BME280;9707;49.158;8.632;2023-03-19T02:26:53;100171.06;;;20.85;34.77
19150;BME280;9707;49.158;8.632;2023-03-19T02:29:20;100167.50;;;20.84;34.88
19150;BME280;9707;49.158;8.632;2023-03-19T02:31:45;100166.50;;;20.85;34.82
19150;BME280;9707;49.158;8.632;2023-03-19T02:36:52;100161.22;;;20.84;35.01
19150;BME280;9707;49.158;8.632;2023-03-19T02:39:29;100157.53;;;20.85;34.72
19150;BME280;9707;49.158;8.632;2023-03-19T02:41:56;100154.81;;;20.85;34.77
19150;BME280;9707;49.158;8.632;2023-03-19T02:44:23;100148.69;;;20.83;34.98
19150;BME280;9707;49.158;8.632;2023-03-19T02:46:48;100160.50;;;20.82;34.99
19150;BME280;9707;49.158;8.632;2023-03-19T02:49:14;100155.22;;;20.80;35.30
19150;BME280;9707;49.158;8.632;2023-03-19T02:51:39;100154.34;;;20.80;34.88
19150;BME280;9707;49.158;8.632;2023-03-19T02:54:06;100157.06;;;20.80;35.15
19150;BME280;9707;49.158;8.632;2023-03-19T02:56:31;100157.06;;;20.80;35.12
19150;BME280;9707;49.158;8.632;2023-03-19T02:58:56;100154.34;;;20.80;34.85
19150;BME280;9707;49.158;8.632;2023-03-19T03:01:22;100155.22;;;20.80;35.15
19150;BME280;9707;49.158;8.632;2023-03-19T03:03:47;100152.38;;;20.82;35.12
19150;BME280;9707;49.158;8.632;2023-03-19T03:06:12;100155.94;;;20.82;35.20
19150;BME280;9707;49.158;8.632;2023-03-19T03:08:38;100148.69;;;20.83;34.98
19150;BME280;9707;49.158;8.632;2023-03-19T03:11:03;100158.53;;;20.84;34.92
19150;BME280;9707;49.158;8.632;2023-03-19T03:13:29;100159.38;;;20.84;34.90
19150;BME280;9707;49.158;8.632;2023-03-19T03:15:54;100163.06;;;20.83;34.82
19150;BME280;9707;49.158;8.632;2023-03-19T03:18:19;100165.06;;;20.81;34.69
19150;BME280;9707;49.158;8.632;2023-03-19T03:20:45;100182.16;;;20.82;34.80
19150;BME280;9707;49.158;8.632;2023-03-19T03:23:10;100182.41;;;20.79;34.73
19150;BME280;9707;49.158;8.632;2023-03-19T03:25:36;100186.00;;;20.79;34.79
19150;BME280;9707;49.158;8.632;2023-03-19T03:28:01;100178.00;;;20.78;35.03
19150;BME280;9707;49.158;8.632;2023-03-19T03:30:27;100180.56;;;20.79;35.43
19150;BME280;9707;49.158;8.632;2023-03-19T03:32:52;100183.13;;;20.81;35.06
19150;BME280;9707;49.158;8.632;2023-03-19T03:35:17;100178.72;;;20.80;34.92
19150;BME280;9707;49.158;8.632;2023-03-19T03:37:47;100176.00;;;20.80;34.78
19150;BME280;9707;49.158;8.632;2023-03-19T03:40:13;100185.13;;;20.79;35.03
19150;BME280;9707;49.158;8.632;2023-03-19T03:42:40;100189.66;;;20.78;34.83
19150;BME280;9707;49.158;8.632;2023-03-19T03:45:06;100182.53;;;20.77;35.05
19150;BME280;9707;49.158;8.632;2023-03-19T03:47:32;100176.28;;;20.77;35.06
19150;BME280;9707;49.158;8.632;2023-03-19T03:49:57;100182.66;;;20.76;35.09
19150;BME280;9707;49.158;8.632;2023-03-19T03:52:22;100184.53;;;20.75;35.10
19150;BME280;9707;49.158;8.632;2023-03-19T03:54:48;100186.22;;;20.76;35.15
19150;BME280;9707;49.158;8.632;2023-03-19T03:57:13;100185.34;;;20.76;35.05
19150;BME280;9707;49.158;8.632;2023-03-19T03:59:41;100186.34;;;20.75;35.10
19150;BME280;9707;49.158;8.632;2023-03-19T04:02:06;100182.81;;;20.74;35.28
19150;BME280;9707;49.158;8.632;2023-03-19T04:04:32;100189.06;;;20.75;35.35
19150;BME280;9707;49.158;8.632;2023-03-19T04:06:57;100197.06;;;20.76;34.93
19150;BME280;9707;49.158;8.632;2023-03-19T04:09:23;100196.19;;;20.76;35.16
19150;BME280;9707;49.158;8.632;2023-03-19T04:11:48;100193.47;;;20.76;35.11
19150;BME280;9707;49.158;8.632;2023-03-19T04:14:13;100198.78;;;20.77;34.97
19150;BME280;9707;49.158;8.632;2023-03-19T04:16:39;100191.66;;;20.76;35.61
19150;BME280;9707;49.158;8.632;2023-03-19T04:19:04;100197.06;;;20.76;35.41
19150;BME280;9707;49.158;8.632;2023-03-19T04:21:31;100204.19;;;20.77;34.96
19150;BME280;9707;49.158;8.632;2023-03-19T04:23:57;100196.19;;;20.76;34.99
19150;BME280;9707;49.158;8.632;2023-03-19T04:26:23;100199.88;;;20.75;34.88
19150;BME280;9707;49.158;8.632;2023-03-19T04:28:48;100193.75;;;20.73;35.15
19150;BME280;9707;49.158;8.632;2023-03-19T04:31:13;100193.75;;;20.73;35.34
19150;BME280;9707;49.158;8.632;2023-03-19T04:33:39;100196.47;;;20.73;35.32
19150;BME280;9707;49.158;8.632;2023-03-19T04:36:05;100192.75;;;20.74;35.30
19150;BME280;9707;49.158;8.632;2023-03-19T04:38:30;100203.59;;;20.74;35.01
19150;BME280;9707;49.158;8.632;2023-03-19T04:40:56;100205.56;;;20.72;35.11
19150;BME280;9707;49.158;8.632;2023-03-19T04:43:22;100203.59;;;20.74;35.24
19150;BME280;9707;49.158;8.632;2023-03-19T04:45:48;100210.84;;;20.73;35.21
19150;BME280;9707;49.158;8.632;2023-03-19T04:48:14;100204.59;;;20.73;35.10
19150;BME280;9707;49.158;8.632;2023-03-19T04:50:40;100212.69;;;20.73;35.16
19150;BME280;9707;49.158;8.632;2023-03-19T04:53:06;100204.59;;;20.73;35.57
19150;BME280;9707;49.158;8.632;2023-03-19T04:55:32;100212.69;;;20.73;35.52
19150;BME280;9707;49.158;8.632;2023-03-19T04:57:58;100213.53;;;20.73;35.40
19150;BME280;9707;49.158;8.632;2023-03-19T05:00:23;100210.72;;;20.75;35.06
19150;BME280;9707;49.158;8.632;2023-03-19T05:02:49;100215.28;;;20.74;34.99
19150;BME280;9707;49.158;8.632;2023-03-19T05:05:14;100219.84;;;20.74;35.10
19150;BME280;9707;49.158;8.632;2023-03-19T05:07:40;100211.72;;;20.74;35.24
19150;BME280;9707;49.158;8.632;2023-03-19T05:10:06;100209.00;;;20.74;35.19
19150;BME280;9707;49.158;8.632;2023-03-19T05:12:32;100220.72;;;20.74;34.99
19150;BME280;9707;49.158;8.632;2023-03-19T05:14:58;100218.97;;;20.73;35.15
19150;BME280;9707;49.158;8.632;2023-03-19T05:17:23;100215.53;;;20.71;35.31
19150;BME280;9707;49.158;8.632;2023-03-19T05:19:49;100219.13;;;20.72;35.56
19150;BME280;9707;49.158;8.632;2023-03-19T05:22:14;100221.81;;;20.72;35.46
19150;BME280;9707;49.158;8.632;2023-03-19T05:24:39;100222.78;;;20.71;35.37
19150;BME280;9707;49.158;8.632;2023-03-19T05:27:05;100226.47;;;20.70;35.21
19150;BME280;9707;49.158;8.632;2023-03-19T05:29:30;100228.34;;;20.69;35.38
19150;BME280;9707;49.158;8.632;2023-03-19T05:31:55;100231.91;;;20.70;35.38
19150;BME280;9707;49.158;8.632;2023-03-19T05:34:21;100225.50;;;20.71;35.10
19150;BME280;9707;49.158;8.632;2023-03-19T05:36:46;100230.06;;;20.70;34.83
19150;BME280;9707;49.158;8.632;2023-03-19T05:39:11;100231.78;;;20.71;35.18
19150;BME280;9707;49.158;8.632;2023-03-19T05:41:37;100229.19;;;20.70;35.38
19150;BME280;9707;49.158;8.632;2023-03-19T05:44:02;100222.06;;;20.69;35.25
19150;BME280;9707;49.158;8.632;2023-03-19T05:46:27;100234.59;;;20.70;35.25
19150;BME280;9707;49.158;8.632;2023-03-19T05:48:53;100227.59;;;20.67;35.55
19150;BME280;9707;49.158;8.632;2023-03-19T05:51:18;100229.47;;;20.67;35.45
19150;BME280;9707;49.158;8.632;2023-03-19T05:53:43;100234.88;;;20.67;35.44
19150;BME280;9707;49.158;8.632;2023-03-19T05:56:09;100238.53;;;20.66;35.25
19150;BME280;9707;49.158;8.632;2023-03-19T05:58:34;100243.00;;;20.67;35.39
19150;BME280;9707;49.158;8.632;2023-03-19T06:01:00;100234.88;;;20.67;35.43
19150;BME280;9707;49.158;8.632;2023-03-19T06:03:26;100245.69;;;20.67;35.28
19150;BME280;9707;49.158;8.632;2023-03-19T06:05:52;100251.13;;;20.67;35.49
19150;BME280;9707;49.158;8.632;2023-03-19T06:08:17;100256.53;;;20.67;35.48
19150;BME280;9707;49.158;8.632;2023-03-19T06:10:43;100258.34;;;20.66;35.38
19150;BME280;9707;49.158;8.632;2023-03-19T06:13:08;100261.94;;;20.67;35.55
19150;BME280;9707;49.158;8.632;2023-03-19T06:15:33;100264.66;;;20.67;35.59
19150;BME280;9707;49.158;8.632;2023-03-19T06:17:59;100264.66;;;20.67;35.70
19150;BME280;9707;49.158;8.632;2023-03-19T06:20:24;100261.94;;;20.67;35.36
19150;BME280;9707;49.158;8.632;2023-03-19T06:22:50;100268.31;;;20.66;35.81
19150;BME280;9707;49.158;8.632;2023-03-19T06:25:16;100273.59;;;20.67;35.69
19150;BME280;9707;49.158;8.632;2023-03-19T06:27:41;100269.06;;;20.68;35.59
19150;BME280;9707;49.158;8.632;2023-03-19T06:30:07;100270.91;;;20.67;35.52
19150;BME280;9707;49.158;8.632;2023-03-19T06:32:34;100269.06;;;20.68;35.50
19150;BME280;9707;49.158;8.632;2023-03-19T06:34:59;100271.66;;;20.69;35.52
19150;BME280;9707;49.158;8.632;2023-03-19T06:37:24;100272.63;;;20.68;35.48
19150;BME280;9707;49.158;8.632;2023-03-19T06:39:51;100264.66;;;20.67;35.64
19150;BME280;9707;49.158;8.632;2023-03-19T06:42:18;100269.06;;;20.68;35.47
19150;BME280;9707;49.158;8.632;2023-03-19T06:44:44;100268.19;;;20.67;35.84
19150;BME280;9707;49.158;8.632;2023-03-19T06:47:09;100271.78;;;20.68;35.59
19150;BME280;9707;49.158;8.632;2023-03-19T06:49:34;100274.47;;;20.68;35.74
19150;BME280;9707;49.158;8.632;2023-03-19T06:52:00;100275.31;;;20.68;35.69
19150;BME280;9707;49.158;8.632;2023-03-19T06:54:25;100271.78;;;20.68;35.69
19150;BME280;9707;49.158;8.632;2023-03-19T06:56:51;100270.78;;;20.69;35.52
19150;BME280;9707;49.158;8.632;2023-03-19T06:59:16;100273.38;;;20.70;35.69
19150;BME280;9707;49.158;8.632;2023-03-19T07:01:41;100273.38;;;20.70;35.65
19150;BME280;9707;49.158;8.632;2023-03-19T07:04:08;100276.91;;;20.71;35.60
19150;BME280;9707;49.158;8.632;2023-03-19T07:06:33;100278.66;;;20.72;35.62
19150;BME280;9707;49.158;8.632;2023-03-19T07:08:59;100275.81;;;20.73;35.68
19150;BME280;9707;49.158;8.632;2023-03-19T07:11:25;100279.28;;;20.75;35.72
19150;BME280;9707;49.158;8.632;2023-03-19T07:13:50;100288.22;;;20.76;35.50
19150;BME280;9707;49.158;8.632;2023-03-19T07:16:15;100290.81;;;20.77;35.31
19150;BME280;9707;49.158;8.632;2023-03-19T07:18:41;100293.53;;;20.77;35.36
19150;BME280;9707;49.158;8.632;2023-03-19T07:21:06;100291.69;;;20.78;35.49
19150;BME280;9707;49.158;8.632;2023-03-19T07:23:31;100301.53;;;20.79;35.48
19150;BME280;9707;49.158;8.632;2023-03-19T07:25:56;100300.53;;;20.80;35.51
19150;BME280;9707;49.158;8.632;2023-03-19T07:28:22;100301.41;;;20.80;35.37
19150;BME280;9707;49.158;8.632;2023-03-19T07:30:50;100298.69;;;20.80;35.33
19150;BME280;9707;49.158;8.632;2023-03-19T07:33:15;100305.72;;;20.83;35.42
19150;BME280;9707;49.158;8.632;2023-03-19T07:35:41;100304.72;;;20.84;35.59
19150;BME280;9707;49.158;8.632;2023-03-19T07:38:06;100298.31;;;20.85;35.78
19150;BME280;9707;49.158;8.632;2023-03-19T07:40:32;100301.78;;;20.87;35.78
19150;BME280;9707;49.158;8.632;2023-03-19T07:42:57;100305.19;;;20.89;35.63
19150;BME280;9707;49.158;8.632;2023-03-19T07:45:22;100303.25;;;20.91;35.71
19150;BME280;9707;49.158;8.632;2023-03-19T07:47:50;100297.59;;;20.94;35.67
19150;BME280;9707;49.158;8.632;2023-03-19T07:50:16;100299.31;;;20.95;35.34
19150;BME280;9707;49.158;8.632;2023-03-19T07:52:44;100301.03;;;20.96;35.75
19150;BME280;9707;49.158;8.632;2023-03-19T07:55:10;100311.63;;;20.99;35.50
19150;BME280;9707;49.158;8.632;2023-03-19T07:57:35;100308.78;;;21.00;35.38
19150;BME280;9707;49.158;8.632;2023-03-19T08:00:01;100303.38;;;21.00;35.44
19150;BME280;9707;49.158;8.632;2023-03-19T08:02:26;100305.97;;;21.02;35.44
19150;BME280;9707;49.158;8.632;2023-03-19T08:04:51;100310.38;;;21.03;35.57
19150;BME280;9707;49.158;8.632;2023-03-19T08:07:16;100295.84;;;21.04;35.57
19150;BME280;9707;49.158;8.632;2023-03-19T08:09:42;100298.56;;;21.04;35.52
19150;BME280;9707;49.158;8.632;2023-03-19T08:12:07;100294.72;;;21.06;35.54
19150;BME280;9707;49.158;8.632;2023-03-19T08:14:33;100303.72;;;21.07;35.49
19150;BME280;9707;49.158;8.632;2023-03-19T08:16:59;100310.84;;;21.08;35.58
19150;BME280;9707;49.158;8.632;2023-03-19T08:19:24;100318.00;;;21.09;35.66
19150;BME280;9707;49.158;8.632;2023-03-19T08:21:50;100298.03;;;21.10;35.67
19150;BME280;9707;49.158;8.632;2023-03-19T08:24:16;100302.47;;;21.11;35.92
19150;BME280;9707;49.158;8.632;2023-03-19T08:26:41;100300.50;;;21.13;35.79
19150;BME280;9707;49.158;8.632;2023-03-19T08:29:07;100303.94;;;21.15;35.78
19150;BME280;9707;49.158;8.632;2023-03-19T08:31:32;100312.94;;;21.15;35.31
19150;BME280;9707;49.158;8.632;2023-03-19T08:33:58;100310.09;;;21.17;35.44
19150;BME280;9707;49.158;8.632;2023-03-19T08:36:27;100311.81;;;21.18;35.27
19150;BME280;9707;49.158;8.632;2023-03-19T08:38:52;100306.13;;;21.21;35.17
19150;BME280;9707;49.158;8.632;2023-03-19T08:41:22;100319.53;;;21.22;35.28
19150;BME280;9707;49.158;8.632;2023-03-19T08:43:48;100322.97;;;21.24;35.31
19150;BME280;9707;49.158;8.632;2023-03-19T08:46:13;100316.59;;;21.25;35.41
19150;BME280;9707;49.158;8.632;2023-03-19T08:48:39;100316.44;;;21.27;35.12
19150;BME280;9707;49.158;8.632;2023-03-19T08:51:05;100314.47;;;21.29;34.87
19150;BME280;9707;49.158;8.632;2023-03-19T08:53:31;100316.19;;;21.30;35.15
19150;BME280;9707;49.158;8.632;2023-03-19T08:56:00;100313.38;;;21.31;35.13
19150;BME280;9707;49.158;8.632;2023-03-19T08:58:26;100321.38;;;21.33;35.21
19150;BME280;9707;49.158;8.632;2023-03-19T09:00:52;100324.81;;;21.35;35.12
19150;BME280;9707;49.158;8.632;2023-03-19T09:03:18;100319.38;;;21.35;35.09
19150;BME280;9707;49.158;8.632;2023-03-19T09:05:45;100323.69;;;21.37;35.05
19150;BME280;9707;49.158;8.632;2023-03-19T09:08:11;100323.69;;;21.37;35.28
19150;BME280;9707;49.158;8.632;2023-03-19T09:10:37;100317.16;;;21.40;35.18
19150;BME280;9707;49.158;8.632;2023-03-19T09:13:02;100310.72;;;21.41;35.17
19150;BME280;9707;49.158;8.632;2023-03-19T09:15:27;100314.19;;;21.43;34.98
19150;BME280;9707;49.158;8.632;2023-03-19T09:17:53;100311.19;;;21.46;35.00
19150;BME280;9707;49.158;8.632;2023-03-19T09:20:18;100321.03;;;21.47;34.77
19150;BME280;9707;49.158;8.632;2023-03-19T09:22:44;100321.78;;;21.49;34.93
19150;BME280;9707;49.158;8.632;2023-03-19T09:25:10;100320.78;;;21.50;34.77
19150;BME280;9707;49.158;8.632;2023-03-19T09:27:35;100316.25;;;21.50;34.78
19150;BME280;9707;49.158;8.632;2023-03-19T09:30:01;100325.97;;;21.53;34.62
19150;BME280;9707;49.158;8.632;2023-03-19T09:32:26;100322.13;;;21.55;34.97
19150;BME280;9707;49.158;8.632;2023-03-19T09:34:51;100321.97;;;21.57;34.63
19150;BME280;9707;49.158;8.632;2023-03-19T09:37:17;100327.41;;;21.57;34.18
19150;BME280;9707;49.158;8.632;2023-03-19T09:39:42;100334.41;;;21.59;34.06
19150;BME280;9707;49.158;8.632;2023-03-19T09:44:54;100325.03;;;21.63;34.25
19150;BME280;9707;49.158;8.632;2023-03-19T09:49:53;100329.13;;;21.69;33.28
19150;BME280;9707;49.158;8.632;2023-03-19T09:55:19;100326.28;;;21.70;32.85
19150;BME280;9707;49.158;8.632;2023-03-19T09:57:53;100328.84;;;21.72;32.31
19150;BME280;9707;49.158;8.632;2023-03-19T10:00:25;100326.88;;;21.74;32.46
19150;BME280;9707;49.158;8.632;2023-03-19T10:11:45;100332.91;;;21.77;32.42
19150;BME280;9707;49.158;8.632;2023-03-19T10:17:18;100330.06;;;21.79;31.79
19150;BME280;9707;49.158;8.632;2023-03-19T10:20:16;100320.06;;;21.79;31.78
19150;BME280;9707;49.158;8.632;2023-03-19T10:22:50;100315.50;;;21.80;31.34
19150;BME280;9707;49.158;8.632;2023-03-19T10:25:20;100324.34;;;21.82;31.35
19150;BME280;9707;49.158;8.632;2023-03-19T10:28:00;100310.66;;;21.83;31.03
19150;BME280;9707;49.158;8.632;2023-03-19T10:30:32;100307.84;;;21.85;30.80
19150;BME280;9707;49.158;8.632;2023-03-19T10:33:16;100309.53;;;21.86;30.88
19150;BME280;9707;49.158;8.632;2023-03-19T10:35:48;100306.84;;;21.86;31.07
19150;BME280;9707;49.158;8.632;2023-03-19T10:38:20;100302.00;;;21.89;31.06
19150;BME280;9707;49.158;8.632;2023-03-19T10:43:35;100303.47;;;21.93;30.36
19150;BME280;9707;49.158;8.632;2023-03-19T10:46:01;100303.34;;;21.95;30.41
19150;BME280;9707;49.158;8.632;2023-03-19T10:48:26;100302.34;;;21.96;30.33
19150;BME280;9707;49.158;8.632;2023-03-19T10:50:58;100304.78;;;21.99;30.35
19150;BME280;9707;49.158;8.632;2023-03-19T10:53:32;100291.06;;;22.00;29.93
19150;BME280;9707;49.158;8.632;2023-03-19T10:56:05;100298.38;;;22.00;30.25
19150;BME280;9707;49.158;8.632;2023-03-19T10:58:35;100287.22;;;22.03;30.26
19150;BME280;9707;49.158;8.632;2023-03-19T11:01:07;100287.09;;;22.04;30.19
19150;BME280;9707;49.158;8.632;2023-03-19T11:06:15;100287.56;;;22.09;30.22
19150;BME280;9707;49.158;8.632;2023-03-19T11:08:42;100292.00;;;22.10;29.77
19150;BME280;9707;49.158;8.632;2023-03-19T11:11:34;100290.03;;;22.12;29.71
19150;BME280;9707;49.158;8.632;2023-03-19T11:14:19;100288.03;;;22.14;29.89
19150;BME280;9707;49.158;8.632;2023-03-19T11:16:56;100295.03;;;22.17;29.55
19150;BME280;9707;49.158;8.632;2023-03-19T11:19:28;100299.47;;;22.18;29.59
19150;BME280;9707;49.158;8.632;2023-03-19T11:22:06;100295.78;;;22.19;29.48
19150;BME280;9707;49.158;8.632;2023-03-19T11:24:37;100293.78;;;22.21;29.68
19150;BME280;9707;49.158;8.632;2023-03-19T11:27:03;100285.38;;;22.24;29.40
19150;BME280;9707;49.158;8.632;2023-03-19T11:29:29;100267.22;;;22.24;29.65
19150;BME280;9707;49.158;8.632;2023-03-19T11:34:44;100285.84;;;22.29;29.58
19150;BME280;9707;49.158;8.632;2023-03-19T11:45:25;100275.13;;;22.37;30.11
19150;BME280;9707;49.158;8.632;2023-03-19T11:48:15;100273.28;;;22.37;30.32
19150;BME280;9707;49.158;8.632;2023-03-19T11:50:59;100288.44;;;22.40;30.09
19150;BME280;9707;49.158;8.632;2023-03-19T12:04:35;100280.78;;;22.45;29.08
19150;BME280;9707;49.158;8.632;2023-03-19T12:07:10;100289.63;;;22.47;29.17
19150;BME280;9707;49.158;8.632;2023-03-19T12:12:42;100280.22;;;22.51;29.43
19150;BME280;9707;49.158;8.632;2023-03-19T12:15:24;100283.66;;;22.53;29.20
19150;BME280;9707;49.158;8.632;2023-03-19T12:18:13;100278.09;;;22.54;29.19
19150;BME280;9707;49.158;8.632;2023-03-19T12:24:20;100285.97;;;22.57;29.33
19150;BME280;9707;49.158;8.632;2023-03-19T12:28:04;100281.41;;;22.58;29.66
19150;BME280;9707;49.158;8.632;2023-03-19T12:32:34;100273.69;;;22.63;29.66
19150;BME280;9707;49.158;8.632;2023-03-19T12:35:09;100264.56;;;22.64;29.84
19150;BME280;9707;49.158;8.632;2023-03-19T12:37:58;100270.59;;;22.67;29.88
19150;BME280;9707;49.158;8.632;2023-03-19T12:40:32;100275.00;;;22.68;29.64
19150;BME280;9707;49.158;8.632;2023-03-19T12:43:01;100261.31;;;22.70;29.63
19150;BME280;9707;49.158;8.632;2023-03-19T12:45:41;100275.59;;;22.72;29.75
19150;BME280;9707;49.158;8.632;2023-03-19T12:48:17;100273.75;;;22.72;30.04
19150;BME280;9707;49.158;8.632;2023-03-19T12:50:49;100273.56;;;22.74;30.05
19150;BME280;9707;49.158;8.632;2023-03-19T12:53:32;100273.44;;;22.75;29.92
19150;BME280;9707;49.158;8.632;2023-03-19T12:56:05;100269.88;;;22.75;30.04
19150;BME280;9707;49.158;8.632;2023-03-19T12:58:45;100285.19;;;22.76;29.81
19150;BME280;9707;49.158;8.632;2023-03-19T13:01:19;100277.88;;;22.76;30.00
19150;BME280;9707;49.158;8.632;2023-03-19T13:03:53;100282.47;;;22.76;29.74
19150;BME280;9707;49.158;8.632;2023-03-19T13:06:27;100281.47;;;22.77;29.75
19150;BME280;9707;49.158;8.632;2023-03-19T13:09:07;100274.19;;;22.77;29.64
19150;BME280;9707;49.158;8.632;2023-03-19T13:11:43;100272.31;;;22.78;29.64
19150;BME280;9707;49.158;8.632;2023-03-19T13:14:17;100276.72;;;22.79;29.56
19150;BME280;9707;49.158;8.632;2023-03-19T13:17:01;100269.47;;;22.79;29.92
19150;BME280;9707;49.158;8.632;2023-03-19T13:19:42;100284.88;;;22.79;29.78
19150;BME280;9707;49.158;8.632;2023-03-19T13:22:12;100278.75;;;22.77;29.83
19150;BME280;9707;49.158;8.632;2023-03-19T13:24:40;100277.88;;;22.76;30.15
19150;BME280;9707;49.158;8.632;2023-03-19T13:27:13;100278.88;;;22.75;30.13
19150;BME280;9707;49.158;8.632;2023-03-19T13:29:53;100286.31;;;22.73;30.28
19150;BME280;9707;49.158;8.632;2023-03-19T13:32:29;100281.72;;;22.74;30.35
19150;BME280;9707;49.158;8.632;2023-03-19T13:35:32;100282.72;;;22.73;30.34
19150;BME280;9707;49.158;8.632;2023-03-19T13:38:02;100285.44;;;22.73;30.27
19150;BME280;9707;49.158;8.632;2023-03-19T13:40:49;100284.59;;;22.72;29.95
19150;BME280;9707;49.158;8.632;2023-03-19T13:56:27;100290.28;;;22.69;30.54
19150;BME280;9707;49.158;8.632;2023-03-19T13:59:23;100296.59;;;22.70;30.99
19150;BME280;9707;49.158;8.632;2023-03-19T14:01:49;100290.16;;;22.71;31.19
19150;BME280;9707;49.158;8.632;2023-03-19T14:04:36;100287.44;;;22.71;31.21
19150;BME280;9707;49.158;8.632;2023-03-19T14:07:17;100292.88;;;22.71;32.06
19150;BME280;9707;49.158;8.632;2023-03-19T14:09:45;100291.88;;;22.72;32.28
19150;BME280;9707;49.158;8.632;2023-03-19T14:14:55;100281.72;;;22.74;32.42
19150;BME280;9707;49.158;8.632;2023-03-19T14:17:56;100270.84;;;22.74;32.22
19150;BME280;9707;49.158;8.632;2023-03-19T14:20:26;100274.56;;;22.73;32.17
19150;BME280;9707;49.158;8.632;2023-03-19T14:23:01;100277.28;;;22.73;32.30